Time;durP1;ratioP1;P1;durP2;ratioP2;P2;SDS_P1;SDS_P2;PMS_P1;PMS_P2;Temp;Humidity;BMP_temperature;BMP_pressure;BME280_temperature;BME280_humidity;BME280_pressure;Samples;Min_cycle;Max_cycle;Signal;HPM_P1;HPM_P2
2023/12/03 00:01:28;;;;;;;25.50;16.43;;;5.50;98.50;;;;;;5015015;28;20188;-67
2023/12/03 00:03:54;;;;;;;22.60;15.70;;;5.40;98.40;;;;;;5013269;28;20208;-68
2023/12/03 00:06:19;;;;;;;24.27;16.80;;;5.40;98.50;;;;;;5015446;28;20178;-67
2023/12/03 00:08:45;;;;;;;21.90;16.63;;;5.30;98.40;;;;;;5014510;28;20194;-67
2023/12/03 00:11:11;;;;;;;24.10;16.40;;;5.40;98.40;;;;;;5015260;28;20177;-67
2023/12/03 00:13:37;;;;;;;26.43;16.03;;;5.30;98.20;;;;;;5014807;28;20271;-68
2023/12/03 00:16:03;;;;;;;25.03;16.77;;;5.30;98.60;;;;;;5014252;28;20622;-67
2023/12/03 00:18:29;;;;;;;24.20;15.98;;;5.30;99.10;;;;;;5013557;28;20466;-68
2023/12/03 00:20:55;;;;;;;25.07;16.50;;;5.30;99.10;;;;;;5014032;28;20206;-67
2023/12/03 00:23:21;;;;;;;25.97;17.00;;;5.30;99.20;;;;;;5014702;28;20855;-67
2023/12/03 00:25:46;;;;;;;786.83;476.97;;;5.30;99.20;;;;;;5014022;28;20182;-66
2023/12/03 00:28:12;;;;;;;123.73;69.70;;;5.40;99.60;;;;;;5014712;28;20270;-67
2023/12/03 00:30:38;;;;;;;30.00;17.97;;;5.40;99.90;;;;;;4977299;28;20215;-59
2023/12/03 00:33:04;;;;;;;25.83;16.20;;;5.20;99.80;;;;;;5006110;28;20187;-67
2023/12/03 00:35:29;;;;;;;27.27;17.10;;;5.20;99.40;;;;;;5014357;28;20178;-68
2023/12/03 00:37:55;;;;;;;23.43;16.77;;;5.40;99.60;;;;;;5013949;28;20294;-67
2023/12/03 00:40:21;;;;;;;25.70;16.83;;;5.40;99.70;;;;;;5008827;28;20212;-67
2023/12/03 00:42:49;;;;;;;28.00;16.37;;;5.30;99.70;;;;;;5013050;28;20208;-67
2023/12/03 00:45:15;;;;;;;27.85;16.88;;;5.30;99.80;;;;;;5006545;28;20177;-68
2023/12/03 00:47:40;;;;;;;26.40;16.97;;;5.30;99.80;;;;;;4994548;28;20172;-67
2023/12/03 00:50:07;;;;;;;25.48;15.68;;;5.30;99.90;;;;;;4995275;28;20199;-74
2023/12/03 00:52:33;;;;;;;32.10;17.60;;;5.40;99.90;;;;;;4976988;28;20299;-75
2023/12/03 00:54:59;;;;;;;22.63;16.58;;;5.30;99.90;;;;;;4994596;28;20724;-74
2023/12/03 00:57:25;;;;;;;24.83;15.50;;;5.30;99.90;;;;;;4994849;28;20180;-74
2023/12/03 00:59:50;;;;;;;24.40;16.57;;;5.30;99.90;;;;;;4998314;28;20399;-74
2023/12/03 01:02:16;;;;;;;25.33;15.90;;;5.30;99.90;;;;;;5014143;28;20770;-74
2023/12/03 01:04:42;;;;;;;23.00;16.40;;;5.30;99.90;;;;;;5012211;28;20579;-73
2023/12/03 01:07:08;;;;;;;23.77;15.80;;;5.30;99.90;;;;;;5013974;28;20172;-76
2023/12/03 01:09:33;;;;;;;32.20;18.93;;;5.30;99.90;;;;;;5013813;28;20258;-76
2023/12/03 01:12:00;;;;;;;24.90;16.33;;;5.30;99.90;;;;;;5013522;28;20689;-73
2023/12/03 01:14:26;;;;;;;25.08;15.93;;;5.30;99.90;;;;;;5012607;28;20194;-75
2023/12/03 01:16:52;;;;;;;27.17;15.87;;;5.40;99.90;;;;;;5013461;28;20576;-75
2023/12/03 01:19:18;;;;;;;23.70;16.10;;;5.40;99.60;;;;;;5012178;28;20207;-75
2023/12/03 01:21:43;;;;;;;22.10;14.37;;;5.40;99.60;;;;;;5012719;28;20191;-75
2023/12/03 01:24:09;;;;;;;21.90;16.00;;;5.40;99.90;;;;;;5012815;28;20204;-75
2023/12/03 01:26:35;;;;;;;28.20;16.10;;;5.40;99.80;;;;;;4988821;28;20555;-75
2023/12/03 01:29:00;;;;;;;22.13;14.70;;;5.40;99.90;;;;;;4993690;28;20552;-76
2023/12/03 01:31:26;;;;;;;22.03;15.03;;;5.50;99.90;;;;;;5004169;28;20172;-75
2023/12/03 01:33:52;;;;;;;24.67;16.23;;;5.10;99.50;;;;;;5011428;28;20215;-75
2023/12/03 01:36:17;;;;;;;23.43;15.13;;;5.40;99.70;;;;;;5012661;28;20188;-76
2023/12/03 01:38:43;;;;;;;22.87;15.63;;;5.30;99.90;;;;;;5012825;28;20202;-76
2023/12/03 01:41:09;;;;;;;23.53;15.63;;;5.20;99.80;;;;;;5005801;28;20184;-77
2023/12/03 01:43:47;;;;;;;22.90;14.90;;;5.40;99.90;;;;;;4990577;28;20194;-76
2023/12/03 01:46:13;;;;;;;24.02;16.20;;;5.30;99.90;;;;;;5012515;28;20254;-76
2023/12/03 01:48:39;;;;;;;21.50;14.40;;;5.20;99.90;;;;;;5013428;28;20179;-76
2023/12/03 01:51:06;;;;;;;25.93;16.40;;;5.10;99.90;;;;;;5012429;28;20171;-75
2023/12/03 01:53:32;;;;;;;19.87;14.70;;;5.20;99.90;;;;;;5013171;28;20550;-75
2023/12/03 01:55:58;;;;;;;25.30;16.08;;;5.20;99.90;;;;;;5011475;28;20862;-74
2023/12/03 01:58:25;;;;;;;21.27;15.35;;;5.20;99.90;;;;;;5013057;28;20191;-76
2023/12/03 02:00:51;;;;;;;25.40;14.53;;;5.20;99.90;;;;;;5012285;28;20180;-75
2023/12/03 02:03:17;;;;;;;21.38;14.50;;;5.20;99.90;;;;;;5011828;28;20433;-75
2023/12/03 02:06:08;;;;;;;24.37;16.27;;;5.10;99.90;;;;;;4993568;28;20184;-73
2023/12/03 02:08:34;;;;;;;26.08;16.08;;;5.30;99.90;;;;;;5012229;28;20764;-76
2023/12/03 02:11:01;;;;;;;19.63;15.38;;;5.20;99.90;;;;;;5012176;28;20180;-74
2023/12/03 02:13:29;;;;;;;24.85;16.23;;;5.20;99.90;;;;;;5012151;28;20179;-74
2023/12/03 02:15:55;;;;;;;24.48;15.63;;;5.40;99.90;;;;;;5012131;28;20254;-74
2023/12/03 02:18:21;;;;;;;19.27;15.20;;;5.20;99.90;;;;;;5012397;28;20195;-74
2023/12/03 02:20:47;;;;;;;24.47;17.10;;;5.40;99.90;;;;;;5012285;28;20184;-75
2023/12/03 02:23:14;;;;;;;24.90;16.30;;;5.10;99.90;;;;;;5012637;28;20428;-74
2023/12/03 02:25:41;;;;;;;23.17;15.82;;;5.20;99.90;;;;;;5009247;28;20179;-74
2023/12/03 02:28:07;;;;;;;23.33;15.85;;;5.10;99.90;;;;;;5011812;28;20207;-74
2023/12/03 02:30:33;;;;;;;23.50;17.00;;;5.20;99.90;;;;;;5012576;28;20174;-75
2023/12/03 02:32:58;;;;;;;20.20;15.03;;;5.10;99.90;;;;;;5011284;28;20172;-76
2023/12/03 02:35:24;;;;;;;21.90;14.90;;;5.30;99.90;;;;;;4979023;28;20620;-69
2023/12/03 02:37:50;;;;;;;26.90;15.90;;;5.30;99.90;;;;;;5011817;28;20195;-73
2023/12/03 02:40:16;;;;;;;24.27;14.60;;;5.30;99.90;;;;;;5012473;28;20183;-75
2023/12/03 02:42:42;;;;;;;24.10;15.03;;;5.30;99.90;;;;;;5010846;28;20279;-74
2023/12/03 02:45:11;;;;;;;22.20;14.80;;;5.30;99.90;;;;;;5011910;28;20171;-74
2023/12/03 02:47:37;;;;;;;21.17;15.13;;;5.30;99.90;;;;;;5012594;28;20159;-73
2023/12/03 02:50:03;;;;;;;25.90;16.23;;;5.20;99.90;;;;;;5012098;28;20177;-73
2023/12/03 02:52:29;;;;;;;22.73;15.00;;;5.20;99.90;;;;;;5011287;28;20219;-73
2023/12/03 02:54:55;;;;;;;26.20;15.40;;;5.40;99.90;;;;;;4993920;28;20527;-75
2023/12/03 02:57:21;;;;;;;21.70;15.80;;;5.20;99.90;;;;;;4993395;28;20414;-75
2023/12/03 02:59:47;;;;;;;27.23;16.27;;;5.30;99.90;;;;;;5008832;28;20199;-74
2023/12/03 03:02:12;;;;;;;25.83;16.30;;;5.30;99.90;;;;;;5012703;28;20175;-75
2023/12/03 03:04:38;;;;;;;24.40;15.33;;;5.30;99.90;;;;;;4977856;28;20863;-75
2023/12/03 03:07:04;;;;;;;26.70;16.03;;;5.30;99.90;;;;;;5011440;28;20178;-73
2023/12/03 03:09:30;;;;;;;25.50;16.20;;;5.30;99.90;;;;;;5012020;28;20175;-74
2023/12/03 03:11:57;;;;;;;23.03;14.60;;;5.00;99.90;;;;;;4993878;28;20179;-75
2023/12/03 03:14:24;;;;;;;23.73;15.50;;;5.40;99.90;;;;;;5011897;28;20250;-75
2023/12/03 03:16:50;;;;;;;27.73;15.93;;;5.10;99.90;;;;;;5011491;28;20419;-75
2023/12/03 03:19:15;;;;;;;25.37;15.87;;;5.30;99.90;;;;;;4994431;28;20537;-75
2023/12/03 03:21:41;;;;;;;23.10;16.07;;;5.60;99.90;;;;;;5011470;28;20493;-73
2023/12/03 03:24:07;;;;;;;21.23;14.90;;;5.30;99.90;;;;;;5011488;28;20566;-74
2023/12/03 03:26:33;;;;;;;24.17;16.27;;;5.30;99.90;;;;;;5011110;28;20704;-75
2023/12/03 03:28:59;;;;;;;29.20;16.13;;;5.50;99.90;;;;;;5011758;28;20513;-74
2023/12/03 03:31:25;;;;;;;25.90;15.63;;;5.40;99.90;;;;;;4994553;28;20179;-73
2023/12/03 03:33:50;;;;;;;28.33;16.60;;;5.40;99.90;;;;;;4993203;28;20809;-74
2023/12/03 03:36:16;;;;;;;26.67;16.37;;;5.40;99.90;;;;;;5011082;28;20229;-74
2023/12/03 03:38:45;;;;;;;27.67;16.10;;;5.40;99.90;;;;;;5010485;28;20207;-71
2023/12/03 03:41:11;;;;;;;22.00;16.02;;;5.40;99.90;;;;;;4992267;28;20223;-74
2023/12/03 03:43:37;;;;;;;29.20;16.57;;;5.40;99.90;;;;;;5006086;28;20531;-74
2023/12/03 03:46:03;;;;;;;28.43;15.97;;;5.30;99.90;;;;;;5010929;28;20186;-73
2023/12/03 03:48:29;;;;;;;24.27;15.65;;;5.20;99.90;;;;;;5012644;28;20233;-74
2023/12/03 03:50:55;;;;;;;23.60;14.93;;;5.40;99.90;;;;;;4993690;28;20307;-74
2023/12/03 03:53:21;;;;;;;25.30;16.70;;;5.60;99.90;;;;;;5013844;28;20222;-74
2023/12/03 03:55:47;;;;;;;27.47;16.47;;;5.20;99.90;;;;;;5014906;28;20183;-75
2023/12/03 03:58:14;;;;;;;25.15;15.75;;;5.40;99.90;;;;;;5015588;28;20274;-74
2023/12/03 04:00:40;;;;;;;26.90;15.00;;;5.50;99.90;;;;;;5012926;28;20622;-74
2023/12/03 04:03:06;;;;;;;24.23;14.73;;;5.40;99.90;;;;;;5006031;28;20179;-72
2023/12/03 04:05:31;;;;;;;21.50;14.80;;;5.20;99.90;;;;;;5004374;28;20182;-75
2023/12/03 04:07:57;;;;;;;20.83;15.00;;;5.40;99.90;;;;;;5004805;28;20173;-74
2023/12/03 04:10:23;;;;;;;23.80;14.60;;;5.30;99.90;;;;;;5007341;28;20180;-73
2023/12/03 04:12:49;;;;;;;25.60;15.83;;;5.30;99.90;;;;;;5003721;28;20175;-63
2023/12/03 04:15:15;;;;;;;22.20;14.50;;;5.30;99.90;;;;;;5003849;28;20231;-74
2023/12/03 04:17:40;;;;;;;23.87;14.77;;;5.50;99.90;;;;;;5005536;28;20777;-73
2023/12/03 04:20:07;;;;;;;21.53;14.37;;;5.20;99.90;;;;;;5003439;28;20396;-74
2023/12/03 04:22:33;;;;;;;25.80;16.02;;;5.10;99.90;;;;;;5005204;28;20164;-75
2023/12/03 04:24:59;;;;;;;25.88;14.73;;;5.20;99.90;;;;;;5005211;28;20278;-74
2023/12/03 04:27:26;;;;;;;23.53;15.30;;;5.30;99.90;;;;;;5014916;28;20199;-74
2023/12/03 04:29:51;;;;;;;23.02;16.45;;;5.30;99.90;;;;;;5013958;28;20172;-74
2023/12/03 04:32:17;;;;;;;24.93;15.43;;;5.30;99.90;;;;;;5014143;28;20634;-74
2023/12/03 04:34:43;;;;;;;25.83;16.20;;;5.30;99.90;;;;;;5014831;28;20232;-75
2023/12/03 04:37:09;;;;;;;20.43;14.60;;;5.30;99.90;;;;;;5014250;28;20180;-74
2023/12/03 04:39:35;;;;;;;28.23;17.07;;;5.30;99.90;;;;;;5014611;28;20949;-74
2023/12/03 04:42:01;;;;;;;22.93;14.80;;;5.40;99.90;;;;;;5013567;28;20755;-74
2023/12/03 04:44:27;;;;;;;23.63;15.87;;;5.60;99.90;;;;;;5003088;28;20165;-74
2023/12/03 04:46:53;;;;;;;25.42;16.50;;;5.40;99.90;;;;;;5003270;28;20472;-74
2023/12/03 04:49:19;;;;;;;24.17;15.30;;;5.30;99.90;;;;;;5014346;28;20183;-74
2023/12/03 04:51:44;;;;;;;24.63;16.10;;;5.40;99.90;;;;;;5014073;28;20449;-76
2023/12/03 04:54:10;;;;;;;24.93;16.20;;;5.50;99.90;;;;;;5013738;28;20176;-75
2023/12/03 04:56:36;;;;;;;24.83;16.57;;;5.40;99.90;;;;;;5014093;28;20263;-74
2023/12/03 04:59:01;;;;;;;26.83;16.53;;;5.50;99.90;;;;;;5013919;28;20251;-76
2023/12/03 05:01:27;;;;;;;26.90;14.87;;;5.60;99.90;;;;;;5014342;28;20517;-75
2023/12/03 05:03:53;;;;;;;22.03;14.70;;;5.70;99.90;;;;;;5012626;28;20588;-76
2023/12/03 05:06:19;;;;;;;26.27;16.07;;;5.50;99.90;;;;;;5013432;28;20176;-74
2023/12/03 05:08:45;;;;;;;22.90;13.83;;;5.20;99.90;;;;;;5014340;28;20414;-74
2023/12/03 05:11:10;;;;;;;20.10;14.47;;;5.50;99.90;;;;;;5013796;28;20470;-74
2023/12/03 05:13:36;;;;;;;22.83;14.33;;;5.60;99.90;;;;;;5013752;28;20501;-74
2023/12/03 05:16:04;;;;;;;26.20;15.37;;;5.70;99.90;;;;;;4996539;28;20187;-74
2023/12/03 05:18:30;;;;;;;23.50;14.17;;;5.50;99.90;;;;;;4984023;28;20214;-75
2023/12/03 05:20:57;;;;;;;26.03;15.43;;;5.60;99.90;;;;;;4992656;28;20408;-75
2023/12/03 05:23:23;;;;;;;19.80;14.27;;;5.60;99.90;;;;;;4999070;28;20418;-75
2023/12/03 05:25:49;;;;;;;21.38;14.30;;;5.50;99.90;;;;;;5013538;28;20385;-75
2023/12/03 05:28:15;;;;;;;22.97;14.50;;;5.50;99.90;;;;;;5013172;28;20496;-72
2023/12/03 05:30:41;;;;;;;19.88;13.40;;;5.40;99.90;;;;;;5005384;28;20184;-75
2023/12/03 05:33:06;;;;;;;21.90;13.97;;;5.50;99.90;;;;;;4988307;28;20182;-75
2023/12/03 05:35:33;;;;;;;19.27;13.30;;;5.50;99.90;;;;;;5013969;28;20209;-75
2023/12/03 05:37:59;;;;;;;19.58;13.98;;;5.70;99.90;;;;;;4995503;28;20208;-75
2023/12/03 05:40:25;;;;;;;23.10;14.60;;;5.70;99.90;;;;;;5013723;28;20581;-76
2023/12/03 05:42:50;;;;;;;19.47;13.83;;;5.40;99.90;;;;;;5014157;28;20490;-76
2023/12/03 05:45:16;;;;;;;21.33;14.33;;;5.60;99.90;;;;;;5012857;28;20389;-75
2023/12/03 05:47:42;;;;;;;21.27;13.23;;;5.60;99.90;;;;;;5013765;28;20634;-76
2023/12/03 05:50:08;;;;;;;21.07;13.80;;;5.40;99.90;;;;;;5013165;28;20173;-76
2023/12/03 05:52:33;;;;;;;21.10;14.40;;;5.60;99.90;;;;;;4995199;28;20224;-75
2023/12/03 05:54:59;;;;;;;22.13;14.70;;;5.60;99.90;;;;;;5003605;28;20174;-76
2023/12/03 05:57:25;;;;;;;19.57;13.83;;;5.60;99.90;;;;;;4994321;28;20169;-75
2023/12/03 05:59:52;;;;;;;23.40;14.90;;;5.70;99.90;;;;;;4995116;28;20232;-75
2023/12/03 06:02:18;;;;;;;19.40;13.70;;;5.60;99.90;;;;;;5012202;28;20175;-75
2023/12/03 06:04:44;;;;;;;20.60;13.23;;;5.80;99.90;;;;;;4995934;28;20492;-75
2023/12/03 06:07:10;;;;;;;15.60;12.40;;;5.70;99.90;;;;;;5012611;28;20168;-74
2023/12/03 06:09:35;;;;;;;21.30;14.00;;;5.80;99.90;;;;;;5012878;28;20612;-75
2023/12/03 06:12:01;;;;;;;19.23;13.40;;;5.70;99.90;;;;;;5012132;28;20180;-75
2023/12/03 06:14:27;;;;;;;18.50;12.73;;;5.70;99.90;;;;;;5012668;28;20184;-75
2023/12/03 06:16:53;;;;;;;18.13;12.40;;;5.70;99.90;;;;;;5013652;28;20179;-77
2023/12/03 06:19:18;;;;;;;19.20;12.70;;;5.70;99.90;;;;;;5012486;28;20953;-75
2023/12/03 06:21:44;;;;;;;19.40;14.60;;;5.90;99.90;;;;;;5013050;28;20168;-76
2023/12/03 06:24:10;;;;;;;18.37;13.03;;;5.70;99.90;;;;;;5011860;28;20239;-75
2023/12/03 06:26:35;;;;;;;18.00;12.40;;;5.60;99.90;;;;;;5000271;28;20605;-75
2023/12/03 06:29:01;;;;;;;14.10;10.90;;;5.60;99.90;;;;;;4975550;28;20191;-75
2023/12/03 06:31:27;;;;;;;19.00;12.33;;;5.70;99.90;;;;;;5012552;28;20203;-76
2023/12/03 06:33:53;;;;;;;14.73;10.80;;;5.60;99.90;;;;;;5011913;28;20178;-75
2023/12/03 06:36:20;;;;;;;19.17;12.70;;;5.70;99.90;;;;;;5008895;28;20415;-66
2023/12/03 06:38:46;;;;;;;17.13;12.13;;;5.70;99.90;;;;;;5011395;28;20444;-73
2023/12/03 06:41:11;;;;;;;16.33;11.10;;;5.80;99.90;;;;;;5011856;28;20423;-73
2023/12/03 06:43:37;;;;;;;16.10;12.70;;;5.70;99.90;;;;;;5012698;28;20256;-74
2023/12/03 06:46:03;;;;;;;17.00;11.60;;;5.40;99.90;;;;;;5012440;28;20235;-71
2023/12/03 06:48:29;;;;;;;13.73;10.83;;;5.80;99.90;;;;;;5011336;28;20188;-74
2023/12/03 06:50:54;;;;;;;15.10;10.63;;;5.70;99.90;;;;;;4971415;28;20663;-73
2023/12/03 06:53:20;;;;;;;16.27;12.17;;;5.60;99.90;;;;;;5007256;28;20221;-73
2023/12/03 06:55:46;;;;;;;14.63;11.20;;;5.80;99.90;;;;;;4998146;28;20506;-74
2023/12/03 06:58:12;;;;;;;15.67;11.10;;;5.70;99.90;;;;;;4974516;28;20463;-72
2023/12/03 07:00:38;;;;;;;17.33;11.00;;;6.00;99.90;;;;;;4997123;28;20456;-74
2023/12/03 07:03:04;;;;;;;14.07;10.70;;;5.80;99.90;;;;;;5001752;28;20444;-73
2023/12/03 07:05:29;;;;;;;16.47;10.20;;;5.80;99.90;;;;;;5004742;28;20184;-73
2023/12/03 07:07:55;;;;;;;13.53;10.83;;;5.80;99.90;;;;;;5011043;28;20185;-73
2023/12/03 07:10:21;;;;;;;14.97;11.10;;;5.80;99.90;;;;;;4993010;28;20179;-73
2023/12/03 07:12:47;;;;;;;17.57;12.60;;;5.80;99.90;;;;;;5012198;28;20514;-73
2023/12/03 07:15:12;;;;;;;14.20;10.00;;;5.80;99.90;;;;;;5010181;28;20203;-73
2023/12/03 07:17:41;;;;;;;12.50;10.43;;;5.80;99.90;;;;;;5009754;28;20233;-71
2023/12/03 07:20:08;;;;;;;14.90;11.30;;;5.90;99.90;;;;;;5010530;28;20184;-73
2023/12/03 07:22:33;;;;;;;14.67;11.37;;;5.90;99.90;;;;;;4997262;28;20486;-74
2023/12/03 07:24:59;;;;;;;16.20;11.10;;;5.90;99.90;;;;;;5007448;28;20890;-64
2023/12/03 07:27:25;;;;;;;14.03;10.10;;;5.70;99.90;;;;;;5006176;28;20187;-73
2023/12/03 07:29:57;;;;;;;15.50;11.67;;;5.70;99.90;;;;;;5016131;28;20176;-73
2023/12/03 07:32:23;;;;;;;14.13;11.10;;;5.70;99.90;;;;;;4996870;28;20180;-72
2023/12/03 07:34:49;;;;;;;12.97;10.30;;;5.80;99.90;;;;;;4986901;28;20789;-68
2023/12/03 07:37:15;;;;;;;13.57;10.93;;;5.80;99.90;;;;;;5012914;28;20427;-69
2023/12/03 07:39:41;;;;;;;13.80;10.80;;;5.90;99.90;;;;;;4994567;28;20545;-68
2023/12/03 07:42:07;;;;;;;15.53;10.83;;;5.90;99.90;;;;;;4990533;28;20176;-68
2023/12/03 07:44:33;;;;;;;14.13;10.17;;;5.90;99.90;;;;;;5010990;28;20191;-69
2023/12/03 07:46:59;;;;;;;13.83;11.13;;;5.90;99.90;;;;;;5001992;28;20390;-68
2023/12/03 07:49:25;;;;;;;15.37;11.70;;;5.90;99.90;;;;;;5015092;28;20507;-68
2023/12/03 07:51:51;;;;;;;13.60;10.90;;;6.00;99.90;;;;;;5013902;28;20425;-69
2023/12/03 07:54:17;;;;;;;14.67;11.27;;;5.90;99.90;;;;;;4999740;28;20384;-68
2023/12/03 07:56:42;;;;;;;15.73;11.00;;;5.90;99.90;;;;;;5009233;28;20812;-69
2023/12/03 07:59:09;;;;;;;15.27;11.17;;;6.00;99.90;;;;;;5010972;28;21025;-68
2023/12/03 08:01:35;;;;;;;12.70;9.83;;;5.90;99.90;;;;;;5013452;28;20185;-67
2023/12/03 08:04:03;;;;;;;15.60;10.50;;;5.90;99.90;;;;;;5014757;28;20751;-67
2023/12/03 08:06:33;;;;;;;15.43;10.40;;;5.90;99.90;;;;;;4996480;28;20435;-68
2023/12/03 08:09:00;;;;;;;15.23;10.87;;;5.80;99.90;;;;;;5013588;28;20504;-62
2023/12/03 08:11:26;;;;;;;15.37;11.10;;;5.90;99.90;;;;;;5014748;28;20395;-68
2023/12/03 08:13:54;;;;;;;16.67;11.33;;;5.90;99.90;;;;;;4996638;28;20432;-68
2023/12/03 08:16:19;;;;;;;13.30;10.33;;;5.70;99.90;;;;;;4994934;28;20466;-67
2023/12/03 08:18:45;;;;;;;17.53;11.47;;;6.00;99.90;;;;;;5014159;28;20451;-67
2023/12/03 08:21:11;;;;;;;11.60;9.67;;;5.90;99.90;;;;;;5001010;28;20648;-68
2023/12/03 08:23:37;;;;;;;12.93;10.30;;;5.90;99.90;;;;;;5007039;28;20594;-68
2023/12/03 08:26:04;;;;;;;15.87;10.83;;;5.80;99.90;;;;;;5008325;28;20191;-63
2023/12/03 08:28:30;;;;;;;13.50;9.93;;;5.80;99.90;;;;;;5009543;28;20632;-64
2023/12/03 08:30:56;;;;;;;12.60;9.43;;;5.70;99.90;;;;;;5013482;28;20425;-67
2023/12/03 08:33:21;;;;;;;14.60;10.93;;;5.70;99.90;;;;;;5006036;28;20776;-67
2023/12/03 08:35:47;;;;;;;12.83;11.00;;;5.70;99.90;;;;;;5013643;28;20658;-67
2023/12/03 08:38:13;;;;;;;12.37;10.10;;;5.80;99.90;;;;;;5010459;28;20216;-67
2023/12/03 08:40:39;;;;;;;13.80;10.73;;;5.80;99.90;;;;;;5009792;28;20181;-67
2023/12/03 08:43:05;;;;;;;14.67;11.07;;;5.70;99.90;;;;;;5012240;28;20174;-67
2023/12/03 08:45:32;;;;;;;15.63;11.47;;;5.70;99.90;;;;;;4982716;28;20912;-67
2023/12/03 08:48:00;;;;;;;12.47;11.17;;;5.90;99.90;;;;;;4998704;28;20426;-67
2023/12/03 08:50:28;;;;;;;16.13;9.43;;;6.10;99.90;;;;;;5012443;28;20436;-68
2023/12/03 08:52:57;;;;;;;11.60;9.20;;;6.70;99.50;;;;;;5003925;28;20985;-68
2023/12/03 08:55:23;;;;;;;11.73;8.60;;;7.90;97.10;;;;;;4995734;28;20450;-67
2023/12/03 08:57:48;;;;;;;14.57;10.37;;;9.20;94.30;;;;;;5013121;28;20432;-68
2023/12/03 09:00:15;;;;;;;10.83;9.30;;;10.50;89.80;;;;;;5012725;28;20285;-69
2023/12/03 09:02:43;;;;;;;11.33;10.13;;;11.50;83.00;;;;;;5014130;28;20201;-64
2023/12/03 09:05:10;;;;;;;12.97;10.40;;;12.00;77.20;;;;;;5012960;28;20432;-67
2023/12/03 09:07:35;;;;;;;13.40;9.90;;;12.10;73.70;;;;;;5013117;28;20491;-68
2023/12/03 09:10:01;;;;;;;11.20;9.70;;;12.40;73.20;;;;;;5013659;28;20459;-64
2023/12/03 09:12:27;;;;;;;10.73;9.37;;;12.80;71.80;;;;;;5012788;28;20431;-67
2023/12/03 09:14:53;;;;;;;11.33;9.40;;;13.20;69.00;;;;;;5012395;28;20432;-62
2023/12/03 09:17:19;;;;;;;10.97;9.87;;;13.60;78.00;;;;;;5012134;28;20189;-63
2023/12/03 09:19:45;;;;;;;12.03;10.10;;;14.40;80.50;;;;;;5012156;28;20206;-63
2023/12/03 09:22:10;;;;;;;10.57;9.47;;;15.60;86.60;;;;;;5011028;28;20430;-62
2023/12/03 09:24:36;;;;;;;11.13;9.67;;;16.90;74.40;;;;;;5003821;28;20547;-63
2023/12/03 09:27:02;;;;;;;11.60;10.50;;;17.90;69.70;;;;;;5006296;28;20183;-62
2023/12/03 09:29:28;;;;;;;12.10;10.83;;;18.60;60.50;;;;;;5003074;28;20190;-63
2023/12/03 09:31:54;;;;;;;12.27;11.07;;;18.80;57.40;;;;;;4996047;28;20417;-63
2023/12/03 09:34:19;;;;;;;11.53;10.33;;;19.50;56.90;;;;;;5012222;28;20211;-62
2023/12/03 09:36:45;;;;;;;12.70;11.40;;;20.00;57.10;;;;;;5014171;28;20207;-62
2023/12/03 09:39:11;;;;;;;11.53;10.43;;;20.30;52.90;;;;;;5012028;28;20198;-63
2023/12/03 09:41:44;;;;;;;11.63;10.53;;;20.40;51.70;;;;;;5013036;28;20183;-63
2023/12/03 09:44:24;;;;;;;12.67;11.37;;;20.50;49.90;;;;;;5011546;28;20414;-62
2023/12/03 09:46:52;;;;;;;11.73;10.33;;;20.40;50.10;;;;;;5012087;28;20948;-63
2023/12/03 09:49:21;;;;;;;12.33;11.23;;;20.40;48.80;;;;;;5012255;28;20484;-63
2023/12/03 09:51:47;;;;;;;11.70;10.60;;;20.50;48.40;;;;;;5012083;28;20561;-63
2023/12/03 09:54:13;;;;;;;12.47;11.23;;;20.90;47.90;;;;;;5008815;28;20485;-63
2023/12/03 09:56:40;;;;;;;11.30;10.30;;;21.20;46.70;;;;;;5011844;28;20426;-64
2023/12/03 09:59:08;;;;;;;12.03;10.70;;;21.40;46.40;;;;;;4993314;28;20266;-63
2023/12/03 10:01:38;;;;;;;11.40;10.30;;;21.20;44.00;;;;;;5010983;28;20414;-63
2023/12/03 10:04:04;;;;;;;11.87;10.67;;;20.10;47.10;;;;;;5003087;28;20538;-63
2023/12/03 10:06:34;;;;;;;11.67;10.50;;;20.10;47.10;;;;;;4994535;28;20429;-63
2023/12/03 10:09:02;;;;;;;12.67;11.47;;;20.30;47.10;;;;;;5007176;28;20422;-63
2023/12/03 10:11:39;;;;;;;13.13;11.83;;;20.30;46.60;;;;;;5008285;28;20422;-64
2023/12/03 10:14:08;;;;;;;13.47;12.27;;;20.30;46.20;;;;;;4994228;28;20433;-63
2023/12/03 10:16:34;;;;;;;12.50;11.40;;;20.40;46.10;;;;;;5011370;28;20815;-63
2023/12/03 10:18:59;;;;;;;12.77;11.47;;;19.80;45.50;;;;;;5011724;28;20460;-63
2023/12/03 10:21:25;;;;;;;13.47;12.07;;;19.60;46.10;;;;;;5006750;28;20650;-63
2023/12/03 10:23:59;;;;;;;13.20;11.90;;;19.50;47.80;;;;;;5007056;28;20183;-63
2023/12/03 10:26:25;;;;;;;12.83;11.53;;;19.40;46.50;;;;;;5002188;28;20414;-63
2023/12/03 10:28:51;;;;;;;12.17;10.97;;;19.40;46.10;;;;;;5007858;28;20460;-63
2023/12/03 10:31:17;;;;;;;14.00;12.57;;;19.30;46.10;;;;;;5006534;28;20434;-65
2023/12/03 10:33:43;;;;;;;13.20;11.90;;;19.20;47.20;;;;;;5008588;28;20434;-64
2023/12/03 10:36:10;;;;;;;12.00;10.80;;;19.10;46.70;;;;;;5007223;28;20433;-63
2023/12/03 10:38:40;;;;;;;12.50;11.20;;;18.60;47.00;;;;;;5008518;28;20517;-63
2023/12/03 10:41:13;;;;;;;12.60;11.37;;;18.30;46.90;;;;;;5007928;28;20391;-62
2023/12/03 10:43:41;;;;;;;13.27;11.90;;;17.40;47.80;;;;;;4991716;28;20469;-65
2023/12/03 10:46:13;;;;;;;13.27;11.70;;;17.20;48.80;;;;;;5007072;28;20435;-62
2023/12/03 10:48:40;;;;;;;14.03;12.23;;;17.00;48.70;;;;;;5008387;28;20842;-63
2023/12/03 10:51:10;;;;;;;14.70;11.73;;;16.70;49.30;;;;;;4990363;28;20472;-62
2023/12/03 10:53:37;;;;;;;14.40;11.80;;;16.40;49.20;;;;;;4987959;28;20498;-63
2023/12/03 10:56:05;;;;;;;14.17;11.77;;;16.30;50.70;;;;;;5004851;28;20449;-64
2023/12/03 10:58:36;;;;;;;12.70;11.40;;;16.30;51.00;;;;;;5003326;28;20454;-63
2023/12/03 11:01:08;;;;;;;14.63;11.50;;;16.20;50.40;;;;;;5007357;28;20504;-63
2023/12/03 11:03:59;;;;;;;87.60;56.13;;;16.10;51.20;;;;;;5010251;28;20421;-64
2023/12/03 11:06:26;;;;;;;57.33;42.83;;;16.00;51.80;;;;;;5003819;28;20437;-64
2023/12/03 11:08:53;;;;;;;13.50;12.03;;;15.60;50.30;;;;;;5011815;28;20428;-64
2023/12/03 11:11:23;;;;;;;15.87;13.80;;;15.20;51.20;;;;;;5007091;28;20475;-64
2023/12/03 11:13:54;;;;;;;14.77;13.20;;;15.10;51.10;;;;;;5012268;28;20460;-65
2023/12/03 11:16:21;;;;;;;14.90;13.10;;;14.80;51.60;;;;;;4992519;28;21087;-64
2023/12/03 11:18:55;;;;;;;15.20;12.63;;;14.40;52.40;;;;;;5011811;28;20534;-63
2023/12/03 11:21:39;;;;;;;15.67;13.00;;;14.30;53.00;;;;;;4990629;28;20423;-63
2023/12/03 11:24:34;;;;;;;14.03;12.20;;;14.10;53.20;;;;;;5009711;28;20446;-62
2023/12/03 11:27:00;;;;;;;15.13;12.87;;;14.10;53.60;;;;;;4994824;28;20796;-62
2023/12/03 11:29:51;;;;;;;14.67;12.50;;;14.20;53.30;;;;;;5011787;28;20430;-63
2023/12/03 11:32:18;;;;;;;13.80;12.33;;;14.10;53.90;;;;;;5010135;28;20270;-64
2023/12/03 11:34:53;;;;;;;13.07;11.47;;;14.20;55.10;;;;;;5009921;28;20469;-64
2023/12/03 11:37:21;;;;;;;15.03;12.90;;;14.30;54.00;;;;;;5010404;28;20440;-64
2023/12/03 11:39:48;;;;;;;225.57;141.00;;;14.30;53.90;;;;;;5010879;28;20460;-64
2023/12/03 11:42:16;;;;;;;27.63;20.03;;;14.50;55.10;;;;;;4992822;28;20430;-62
2023/12/03 11:44:43;;;;;;;14.27;12.07;;;14.60;54.70;;;;;;5010977;28;20422;-61
2023/12/03 11:47:10;;;;;;;13.97;12.10;;;14.70;53.00;;;;;;5010797;28;20432;-61
2023/12/03 11:49:37;;;;;;;17.10;14.20;;;14.80;53.60;;;;;;4993264;28;20527;-61
2023/12/03 11:52:04;;;;;;;17.90;13.40;;;14.40;52.40;;;;;;5007408;28;20478;-61
2023/12/03 11:54:54;;;;;;;18.27;12.90;;;14.00;52.30;;;;;;4993482;28;20436;-60
2023/12/03 11:57:19;;;;;;;13.07;11.60;;;13.90;54.60;;;;;;5010447;28;20451;-61
2023/12/03 11:59:45;;;;;;;14.73;12.00;;;14.00;55.80;;;;;;5010484;28;20497;-61
2023/12/03 12:02:12;;;;;;;13.07;11.30;;;14.00;53.90;;;;;;5009150;28;20542;-61
2023/12/03 12:04:38;;;;;;;16.30;13.23;;;14.00;55.20;;;;;;5011421;28;20485;-61
2023/12/03 12:07:17;;;;;;;13.87;12.57;;;14.00;54.50;;;;;;5011246;28;20824;-60
2023/12/03 12:09:49;;;;;;;17.30;14.33;;;13.90;56.20;;;;;;5011123;28;20549;-62
2023/12/03 12:12:16;;;;;;;14.60;12.53;;;13.30;55.20;;;;;;5010207;28;20421;-61
2023/12/03 12:14:41;;;;;;;16.73;13.00;;;12.80;56.60;;;;;;4993702;28;20435;-60
2023/12/03 12:17:10;;;;;;;14.47;10.80;;;12.30;57.20;;;;;;4993027;28;20423;-61
2023/12/03 12:19:47;;;;;;;15.43;12.57;;;12.60;57.40;;;;;;5001641;28;20208;-62
2023/12/03 12:22:13;;;;;;;426.73;261.43;;;12.80;57.50;;;;;;5001591;28;20859;-62
2023/12/03 12:24:39;;;;;;;36.03;25.13;;;13.00;58.10;;;;;;4969691;28;20516;-62
2023/12/03 12:27:05;;;;;;;21.83;16.33;;;13.20;57.80;;;;;;5008093;28;20432;-62
2023/12/03 12:29:32;;;;;;;16.30;12.30;;;13.20;56.90;;;;;;4992348;28;20267;-62
2023/12/03 12:31:59;;;;;;;18.17;12.33;;;13.40;58.30;;;;;;5011162;28;20463;-62